Time;durP1;ratioP1;P1;durP2;ratioP2;P2;SDS_P1;SDS_P2;PMS_P1;PMS_P2;Temp;Humidity;BMP_temperature;BMP_pressure;BME280_temperature;BME280_humidity;BME280_pressure;Samples;Min_cycle;Max_cycle;Signal;HPM_P1;HPM_P2
2022/06/07 00:00:36;;;;;;;3.40;2.73;;;17.40;99.90;;;;;;5050289;28;20469;-84
2022/06/07 00:03:02;;;;;;;2.60;2.13;;;17.30;99.90;;;;;;5044866;28;20532;-84
2022/06/07 00:05:28;;;;;;;2.33;2.00;;;17.30;99.90;;;;;;5040188;28;20468;-84
2022/06/07 00:07:54;;;;;;;2.47;2.27;;;17.20;99.90;;;;;;5039789;28;20479;-84
2022/06/07 00:10:22;;;;;;;2.50;2.30;;;17.10;99.90;;;;;;5043790;28;21049;-84
2022/06/07 00:12:47;;;;;;;2.40;2.20;;;17.00;99.90;;;;;;5041209;28;20201;-84
2022/06/07 00:15:14;;;;;;;4.10;2.00;;;17.00;99.90;;;;;;5039415;28;20445;-84
2022/06/07 00:17:40;;;;;;;2.20;2.00;;;17.00;99.90;;;;;;5036000;28;20214;-85
2022/06/07 00:20:08;;;;;;;2.23;2.10;;;16.90;99.90;;;;;;5040396;28;20477;-84
2022/06/07 00:22:34;;;;;;;1.90;1.80;;;16.90;99.90;;;;;;5039054;28;20498;-84
2022/06/07 00:25:00;;;;;;;1.90;1.80;;;16.90;99.90;;;;;;5041486;28;20445;-84
2022/06/07 00:27:25;;;;;;;2.00;1.90;;;16.90;99.90;;;;;;5054736;28;20487;-85
2022/06/07 00:29:51;;;;;;;2.87;1.90;;;16.90;99.90;;;;;;5054946;28;20183;-84
2022/06/07 00:32:19;;;;;;;2.37;2.27;;;16.90;99.90;;;;;;5045965;28;20599;-84
2022/06/07 00:34:45;;;;;;;2.03;1.93;;;16.80;99.90;;;;;;5036949;28;20524;-85
2022/06/07 00:37:10;;;;;;;3.00;2.00;;;16.80;99.90;;;;;;5044950;28;20440;-85
2022/06/07 00:39:38;;;;;;;2.40;2.20;;;16.70;99.90;;;;;;5041552;28;20485;-84
2022/06/07 00:42:07;;;;;;;2.87;2.20;;;16.60;99.90;;;;;;5046135;28;20171;-85
2022/06/07 00:44:46;;;;;;;2.43;2.23;;;16.40;99.90;;;;;;5045865;28;20567;-84
2022/06/07 00:47:15;;;;;;;2.80;2.60;;;16.30;99.90;;;;;;5035562;28;21923;-84
2022/06/07 00:50:00;;;;;;;2.33;2.23;;;16.30;99.90;;;;;;5044125;28;21005;-84
2022/06/07 00:52:28;;;;;;;2.20;2.10;;;16.20;99.90;;;;;;5042789;28;20448;-83
2022/06/07 00:54:54;;;;;;;4.40;2.40;;;16.10;99.90;;;;;;5043700;28;20452;-84
2022/06/07 00:57:21;;;;;;;1.93;1.83;;;16.20;99.90;;;;;;5040471;28;22304;-84
2022/06/07 00:59:48;;;;;;;2.10;2.00;;;16.10;99.90;;;;;;5042275;28;20469;-84
2022/06/07 01:02:13;;;;;;;4.80;2.30;;;16.10;99.90;;;;;;5041217;28;20437;-84
2022/06/07 01:04:39;;;;;;;2.67;2.40;;;16.10;99.90;;;;;;5042156;28;20492;-84
2022/06/07 01:12:34;;;;;;;2.50;2.30;;;15.90;99.90;;;;;;5046021;28;20468;-84
2022/06/07 01:15:00;;;;;;;2.90;2.50;;;15.90;99.90;;;;;;5048527;28;20580;-86
2022/06/07 01:17:26;;;;;;;2.70;2.50;;;15.90;99.90;;;;;;5040002;28;20981;-85
2022/06/07 01:19:52;;;;;;;2.37;2.27;;;15.90;99.90;;;;;;5043389;28;20669;-85
2022/06/07 01:22:19;;;;;;;2.40;2.30;;;15.90;99.90;;;;;;5044128;28;21091;-85
2022/06/07 01:24:45;;;;;;;2.60;2.40;;;15.90;99.90;;;;;;5043078;28;20445;-85
2022/06/07 01:27:11;;;;;;;2.90;2.20;;;15.90;99.90;;;;;;5049397;28;20528;-85
2022/06/07 01:29:38;;;;;;;6.80;2.77;;;15.90;99.90;;;;;;5045301;28;20445;-85
2022/06/07 01:32:04;;;;;;;2.40;2.20;;;15.90;99.90;;;;;;5038881;28;20433;-85
2022/06/07 01:34:30;;;;;;;2.50;2.40;;;15.90;99.90;;;;;;5041743;28;20445;-85
2022/06/07 01:36:59;;;;;;;2.80;2.40;;;15.80;99.90;;;;;;5044358;28;20440;-85
2022/06/07 01:42:12;;;;;;;3.10;2.30;;;15.70;99.90;;;;;;5038924;28;20468;-85
2022/06/07 01:44:43;;;;;;;3.10;2.80;;;15.80;99.90;;;;;;5041010;28;20516;-84
2022/06/07 01:47:12;;;;;;;2.67;2.47;;;15.80;99.90;;;;;;5041750;28;20440;-84
2022/06/07 01:49:40;;;;;;;2.30;2.20;;;15.80;99.90;;;;;;5041009;28;20453;-84
2022/06/07 01:52:07;;;;;;;2.47;2.27;;;15.90;99.90;;;;;;5040584;28;20486;-85
2022/06/07 01:54:32;;;;;;;2.47;2.27;;;15.90;99.90;;;;;;5060431;28;20441;-84
2022/06/07 01:56:59;;;;;;;2.63;2.43;;;15.90;99.90;;;;;;5040000;28;20437;-84
2022/06/07 01:59:24;;;;;;;2.30;2.20;;;15.80;99.90;;;;;;5045912;28;20220;-84
2022/06/07 02:01:51;;;;;;;2.33;2.23;;;15.80;99.90;;;;;;5041242;28;20429;-84
2022/06/07 02:04:17;;;;;;;2.73;2.53;;;15.60;99.90;;;;;;5041715;28;20179;-86
2022/06/07 02:06:43;;;;;;;2.50;2.30;;;15.60;99.90;;;;;;5040099;28;20437;-85
2022/06/07 02:09:09;;;;;;;4.00;2.57;;;15.60;99.90;;;;;;5044316;28;20499;-85
2022/06/07 02:11:37;;;;;;;3.27;2.47;;;15.60;99.90;;;;;;5035014;28;20179;-85
2022/06/07 02:14:04;;;;;;;2.43;2.23;;;15.60;99.90;;;;;;5043729;28;20430;-85
2022/06/07 02:16:31;;;;;;;2.37;2.20;;;15.50;99.90;;;;;;5053374;28;20429;-85
2022/06/07 02:18:57;;;;;;;2.77;2.40;;;15.50;99.90;;;;;;5037313;28;20608;-86
2022/06/07 02:21:23;;;;;;;2.03;1.83;;;15.60;99.90;;;;;;5040418;28;20448;-85
2022/06/07 02:23:49;;;;;;;2.23;2.03;;;15.50;99.90;;;;;;5039742;28;20186;-85
2022/06/07 02:26:25;;;;;;;1.90;1.80;;;15.40;99.90;;;;;;5035177;28;20541;-86
2022/06/07 02:29:14;;;;;;;2.37;2.17;;;15.40;99.90;;;;;;5042509;28;20460;-85
2022/06/07 02:31:49;;;;;;;2.30;2.20;;;15.40;99.90;;;;;;5040042;28;20460;-85
2022/06/07 02:34:16;;;;;;;2.70;2.20;;;15.40;99.90;;;;;;5043770;28;20445;-85
2022/06/07 02:36:43;;;;;;;2.40;2.30;;;15.40;99.90;;;;;;5055540;28;20957;-85
2022/06/07 02:39:09;;;;;;;3.60;2.27;;;15.40;99.90;;;;;;5035697;28;20515;-85
2022/06/07 02:41:35;;;;;;;2.80;2.60;;;15.40;99.90;;;;;;5039673;28;20437;-85
2022/06/07 02:44:01;;;;;;;4.10;2.70;;;15.40;99.90;;;;;;5036555;28;20318;-85
2022/06/07 02:46:27;;;;;;;2.40;2.30;;;15.40;99.90;;;;;;5048822;28;21427;-85
2022/06/07 02:48:52;;;;;;;2.47;2.37;;;15.40;99.90;;;;;;5043480;28;20175;-85
2022/06/07 02:51:18;;;;;;;3.67;2.60;;;15.40;99.90;;;;;;5042144;28;20240;-85
2022/06/07 02:53:44;;;;;;;2.20;2.10;;;15.40;99.90;;;;;;5034917;28;20393;-85
2022/06/07 02:56:10;;;;;;;2.90;2.30;;;15.40;99.90;;;;;;5041499;28;20194;-85
2022/06/07 02:58:36;;;;;;;2.83;2.63;;;15.40;99.90;;;;;;5040307;28;20495;-85
2022/06/07 03:01:01;;;;;;;4.30;2.53;;;15.40;99.90;;;;;;5043068;28;20275;-85
2022/06/07 03:03:27;;;;;;;2.33;2.23;;;15.40;99.90;;;;;;5037409;28;20859;-85
2022/06/07 03:05:53;;;;;;;2.53;2.33;;;15.30;99.90;;;;;;5035190;28;20186;-85
2022/06/07 03:08:20;;;;;;;2.70;2.50;;;15.40;99.90;;;;;;5045537;28;20275;-85
2022/06/07 03:10:47;;;;;;;2.80;2.60;;;15.40;99.90;;;;;;5042984;28;20469;-85
2022/06/07 03:13:13;;;;;;;3.03;2.73;;;15.40;99.90;;;;;;5036862;28;20892;-85
2022/06/07 03:15:40;;;;;;;3.03;2.83;;;15.30;99.90;;;;;;5038458;28;21067;-85
2022/06/07 03:18:05;;;;;;;2.50;2.30;;;15.30;99.90;;;;;;5042533;28;20445;-85
2022/06/07 03:20:31;;;;;;;3.10;2.90;;;15.20;99.90;;;;;;5042147;28;21030;-85
2022/06/07 03:22:57;;;;;;;5.50;2.73;;;15.20;99.90;;;;;;5051465;28;20210;-85
2022/06/07 03:25:24;;;;;;;2.50;2.30;;;15.10;99.90;;;;;;5039073;28;20178;-85
2022/06/07 03:27:50;;;;;;;2.80;2.60;;;15.10;99.90;;;;;;5041125;28;20194;-86
2022/06/07 03:30:16;;;;;;;2.83;2.63;;;15.20;99.90;;;;;;5035831;28;20464;-85
2022/06/07 03:32:43;;;;;;;3.53;3.23;;;15.20;99.90;;;;;;5044649;28;20438;-85
2022/06/07 03:35:09;;;;;;;2.80;2.50;;;15.20;99.90;;;;;;5047642;28;20441;-86
2022/06/07 03:37:36;;;;;;;2.70;2.50;;;15.20;99.90;;;;;;5049802;28;21216;-86
2022/06/07 03:40:03;;;;;;;3.10;2.90;;;15.10;99.90;;;;;;5052695;28;20563;-86
2022/06/07 03:42:29;;;;;;;2.90;2.70;;;15.20;99.90;;;;;;5054580;28;20448;-85
2022/06/07 03:44:55;;;;;;;2.70;2.60;;;15.20;99.90;;;;;;5052813;28;20438;-86
2022/06/07 03:47:21;;;;;;;4.07;3.13;;;15.20;99.90;;;;;;5052532;28;20464;-86
2022/06/07 03:49:46;;;;;;;4.43;3.07;;;15.20;99.90;;;;;;5045225;28;20187;-86
2022/06/07 03:52:13;;;;;;;4.60;3.30;;;15.20;99.90;;;;;;5031652;28;20959;-85
2022/06/07 03:54:41;;;;;;;2.90;2.60;;;15.20;99.90;;;;;;5045922;28;20297;-85
2022/06/07 03:57:08;;;;;;;3.00;2.73;;;15.20;99.90;;;;;;5038300;28;20449;-86
2022/06/07 03:59:34;;;;;;;2.70;2.50;;;15.20;99.90;;;;;;5043574;28;20488;-85
2022/06/07 04:01:59;;;;;;;3.13;2.90;;;15.20;99.90;;;;;;5040449;28;20901;-85
2022/06/07 04:04:26;;;;;;;3.20;3.00;;;15.30;99.90;;;;;;5034290;28;20758;-86
2022/06/07 04:09:39;;;;;;;3.30;3.10;;;15.30;99.90;;;;;;5041874;28;20451;-86
2022/06/07 04:12:07;;;;;;;3.50;3.20;;;15.30;99.90;;;;;;5038683;28;20589;-85
2022/06/07 04:14:32;;;;;;;3.07;2.87;;;15.30;99.90;;;;;;5043964;28;20441;-86
2022/06/07 04:16:58;;;;;;;3.37;3.07;;;15.30;99.90;;;;;;5036141;28;20668;-86
2022/06/07 04:19:23;;;;;;;3.67;2.90;;;15.30;99.90;;;;;;5041446;28;20209;-86
2022/06/07 04:21:50;;;;;;;4.43;3.40;;;15.30;99.90;;;;;;5062698;28;20732;-85
2022/06/07 04:24:16;;;;;;;3.20;3.00;;;15.30;99.90;;;;;;5050806;28;20245;-85
2022/06/07 04:26:41;;;;;;;3.53;3.23;;;15.40;99.90;;;;;;5043497;28;20803;-86
2022/06/07 04:29:10;;;;;;;4.03;3.70;;;15.40;99.90;;;;;;5038687;28;20232;-87
2022/06/07 04:31:38;;;;;;;3.40;3.20;;;15.30;99.90;;;;;;5034228;28;20175;-86
2022/06/07 04:34:04;;;;;;;3.23;3.00;;;15.30;99.90;;;;;;5041120;28;20438;-87
2022/06/07 04:36:29;;;;;;;3.83;3.37;;;15.30;99.90;;;;;;5037575;28;20904;-87
2022/06/07 04:38:57;;;;;;;3.67;3.30;;;15.20;99.90;;;;;;5047117;28;20277;-87
2022/06/07 04:41:23;;;;;;;3.57;3.27;;;15.20;99.90;;;;;;5024697;28;20805;-85
2022/06/07 04:43:51;;;;;;;4.13;3.73;;;15.20;99.90;;;;;;5042785;28;21242;-89
2022/06/07 04:46:17;;;;;;;4.40;4.00;;;15.10;99.90;;;;;;5031098;28;21251;-85
2022/06/07 04:48:45;;;;;;;3.63;3.40;;;15.20;99.90;;;;;;5060446;28;20513;-83
2022/06/07 04:51:13;;;;;;;3.40;3.20;;;15.20;99.90;;;;;;5040341;28;21838;-83
2022/06/07 04:53:39;;;;;;;4.30;3.90;;;15.10;99.90;;;;;;5044148;28;20449;-84
2022/06/07 04:56:10;;;;;;;3.30;3.00;;;15.10;99.90;;;;;;5045546;28;21011;-85
2022/06/07 04:58:35;;;;;;;3.20;3.00;;;15.20;99.90;;;;;;5044919;28;20300;-84
2022/06/07 05:01:01;;;;;;;3.17;2.87;;;15.20;99.90;;;;;;5039168;28;20712;-85
2022/06/07 05:03:26;;;;;;;4.57;3.53;;;15.30;99.90;;;;;;5040755;28;21294;-84
2022/06/07 05:05:53;;;;;;;4.60;4.00;;;15.30;99.90;;;;;;5035900;28;20540;-85
2022/06/07 05:08:31;;;;;;;13.67;12.57;;;15.30;99.90;;;;;;4980268;28;20233;-86
2022/06/07 05:10:59;;;;;;;17.50;16.10;;;15.40;99.90;;;;;;4945764;28;20805;-86
2022/06/07 05:13:24;;;;;;;3.30;3.10;;;15.40;99.90;;;;;;4942035;28;20450;-86
2022/06/07 05:15:54;;;;;;;3.27;3.07;;;15.40;99.90;;;;;;4945399;28;21037;-86
2022/06/07 05:18:19;;;;;;;3.40;3.10;;;15.40;99.90;;;;;;4942641;28;20201;-85
2022/06/07 05:20:45;;;;;;;3.17;2.97;;;15.50;99.90;;;;;;4949509;28;20589;-86
2022/06/07 05:23:11;;;;;;;3.30;3.00;;;15.50;99.90;;;;;;4942825;28;20333;-85
2022/06/07 05:25:36;;;;;;;3.60;3.10;;;15.60;99.90;;;;;;4947148;28;20431;-85
2022/06/07 05:28:02;;;;;;;3.43;3.23;;;15.60;99.90;;;;;;4942401;28;20884;-85
2022/06/07 05:30:28;;;;;;;3.20;3.00;;;15.60;99.90;;;;;;4947016;28;20552;-85
2022/06/07 05:32:56;;;;;;;4.03;3.73;;;15.70;99.90;;;;;;4945974;28;20488;-85
2022/06/07 05:35:22;;;;;;;3.40;3.10;;;15.70;99.90;;;;;;4948207;28;21257;-85
2022/06/07 05:37:56;;;;;;;4.13;3.67;;;15.70;99.90;;;;;;4947669;28;20442;-85
2022/06/07 05:40:21;;;;;;;3.00;2.80;;;15.80;99.90;;;;;;4954078;28;21052;-85
2022/06/07 05:42:47;;;;;;;4.07;3.77;;;15.80;99.90;;;;;;4960929;28;20808;-85
2022/06/07 05:45:16;;;;;;;3.67;3.43;;;15.70;99.90;;;;;;4948432;28;20206;-86
2022/06/07 05:47:44;;;;;;;4.30;3.50;;;15.70;99.90;;;;;;4948554;28;20182;-85
2022/06/07 05:50:10;;;;;;;3.90;3.60;;;15.80;99.90;;;;;;4949303;28;20449;-85
2022/06/07 05:52:48;;;;;;;3.57;3.27;;;15.80;99.90;;;;;;4945775;28;20438;-86
2022/06/07 05:55:13;;;;;;;3.30;3.00;;;15.90;99.90;;;;;;4947576;28;20797;-85
2022/06/07 05:57:39;;;;;;;4.10;3.37;;;16.00;99.90;;;;;;4941715;28;20972;-86
2022/06/07 06:00:06;;;;;;;4.33;3.60;;;16.00;99.90;;;;;;4951319;28;21379;-85
2022/06/07 06:02:31;;;;;;;3.13;2.93;;;16.10;99.90;;;;;;4945550;28;20936;-85
2022/06/07 06:04:57;;;;;;;3.27;3.07;;;16.10;99.90;;;;;;4945910;28;20753;-86
2022/06/07 06:07:22;;;;;;;3.17;2.87;;;16.20;99.90;;;;;;4946958;28;20186;-85
2022/06/07 06:12:33;;;;;;;3.40;3.10;;;16.00;99.90;;;;;;4941469;28;20721;-85
2022/06/07 06:14:58;;;;;;;3.50;3.20;;;15.90;99.90;;;;;;4950041;28;20812;-86
2022/06/07 06:17:24;;;;;;;2.70;2.50;;;16.10;99.90;;;;;;4949854;28;20429;-86
2022/06/07 06:19:49;;;;;;;3.17;2.97;;;16.10;99.90;;;;;;4945212;28;20214;-86
2022/06/07 06:22:15;;;;;;;6.07;3.10;;;16.30;99.90;;;;;;4943725;28;20711;-85
2022/06/07 06:24:41;;;;;;;3.30;3.00;;;16.40;99.90;;;;;;4946165;28;20198;-86
2022/06/07 06:27:06;;;;;;;4.20;3.57;;;16.30;99.90;;;;;;4949835;28;20625;-85
2022/06/07 06:29:32;;;;;;;3.23;2.60;;;16.40;99.90;;;;;;4946330;28;20206;-86
2022/06/07 06:31:58;;;;;;;3.73;2.80;;;16.50;99.90;;;;;;4943081;28;20283;-86
2022/06/07 06:34:29;;;;;;;3.10;2.90;;;16.40;99.90;;;;;;4947204;28;20457;-86
2022/06/07 06:36:56;;;;;;;5.30;3.40;;;16.40;99.90;;;;;;4960768;28;20187;-86
2022/06/07 06:39:22;;;;;;;3.30;3.10;;;16.30;99.90;;;;;;4949854;28;20539;-86
2022/06/07 06:41:48;;;;;;;2.60;2.30;;;16.40;99.90;;;;;;4942612;28;20433;-86
2022/06/07 06:44:13;;;;;;;3.20;3.00;;;16.60;99.90;;;;;;4945219;28;20469;-87
2022/06/07 06:46:41;;;;;;;3.20;2.53;;;16.80;99.90;;;;;;4947606;28;20195;-86
2022/06/07 06:49:08;;;;;;;3.73;3.53;;;16.90;99.90;;;;;;4944410;28;20199;-86
2022/06/07 06:51:34;;;;;;;4.90;4.47;;;17.00;99.90;;;;;;4959777;28;20445;-86
2022/06/07 06:54:02;;;;;;;3.30;3.00;;;17.10;99.90;;;;;;4945975;28;20568;-86
2022/06/07 06:56:29;;;;;;;4.50;2.87;;;17.20;99.90;;;;;;4948853;28;20446;-86
2022/06/07 06:58:56;;;;;;;3.17;2.73;;;17.10;99.90;;;;;;4966158;28;20450;-86
2022/06/07 07:01:28;;;;;;;3.17;2.90;;;17.10;99.90;;;;;;4945444;28;20979;-86
2022/06/07 07:03:54;;;;;;;3.70;3.40;;;17.30;99.90;;;;;;4943928;28;20906;-86
2022/06/07 07:06:21;;;;;;;3.53;3.30;;;17.40;99.90;;;;;;4942680;28;20449;-86
2022/06/07 07:08:47;;;;;;;3.73;3.43;;;17.40;99.90;;;;;;4961240;28;20189;-86
2022/06/07 07:11:35;;;;;;;3.20;3.00;;;17.50;99.90;;;;;;4943763;28;20457;-86
2022/06/07 07:14:02;;;;;;;2.80;2.47;;;17.60;99.90;;;;;;4946414;28;20446;-86
2022/06/07 07:16:31;;;;;;;3.30;3.00;;;17.40;99.90;;;;;;4946609;28;20446;-85
2022/06/07 07:18:58;;;;;;;3.53;3.27;;;17.40;99.90;;;;;;4946747;28;20449;-85
2022/06/07 07:21:33;;;;;;;4.07;2.80;;;17.50;99.90;;;;;;4947374;28;20469;-86
2022/06/07 07:23:59;;;;;;;3.03;2.83;;;17.40;99.90;;;;;;4952175;28;20579;-86
2022/06/07 07:26:26;;;;;;;4.83;3.40;;;17.50;99.90;;;;;;4947970;28;20805;-86
2022/06/07 07:28:52;;;;;;;3.53;3.27;;;17.50;99.90;;;;;;4945063;28;20201;-86
2022/06/07 07:31:30;;;;;;;4.33;2.80;;;17.60;99.90;;;;;;4947575;28;20450;-85
2022/06/07 07:33:56;;;;;;;3.17;2.97;;;17.80;99.90;;;;;;4950909;28;20812;-86
2022/06/07 07:36:21;;;;;;;3.40;2.63;;;17.90;99.90;;;;;;4955257;28;20453;-86
2022/06/07 07:38:47;;;;;;;3.00;2.80;;;18.10;99.90;;;;;;4960804;28;20500;-86
2022/06/07 07:41:17;;;;;;;2.77;2.57;;;18.30;99.90;;;;;;4950217;28;20722;-85
2022/06/07 07:43:52;;;;;;;4.70;3.20;;;18.30;99.90;;;;;;4946485;28;20195;-86
2022/06/07 07:46:20;;;;;;;3.27;3.07;;;18.10;99.90;;;;;;4947856;28;20441;-85
2022/06/07 07:48:46;;;;;;;4.10;3.00;;;17.80;99.90;;;;;;4944832;28;20435;-85
2022/06/07 07:51:29;;;;;;;2.97;2.77;;;17.70;99.90;;;;;;4959975;28;20438;-85
2022/06/07 07:53:57;;;;;;;2.80;2.70;;;17.80;99.90;;;;;;4956913;28;20791;-85
2022/06/07 07:56:23;;;;;;;3.07;2.87;;;17.80;99.90;;;;;;4948847;28;21197;-86
2022/06/07 07:58:50;;;;;;;3.17;2.97;;;17.90;99.90;;;;;;4945285;28;20446;-85
2022/06/07 08:01:30;;;;;;;2.80;2.60;;;18.00;99.90;;;;;;4949179;28;20442;-86
2022/06/07 08:03:58;;;;;;;2.50;2.30;;;18.30;99.90;;;;;;4961594;28;20442;-85
2022/06/07 08:06:27;;;;;;;2.90;2.70;;;18.50;99.90;;;;;;4941526;28;20430;-85
2022/06/07 08:08:55;;;;;;;2.43;2.27;;;18.70;99.90;;;;;;4946850;28;20445;-85
2022/06/07 08:11:23;;;;;;;2.87;2.67;;;18.70;99.90;;;;;;4948387;28;21229;-86
2022/06/07 08:13:49;;;;;;;4.00;2.50;;;18.70;99.90;;;;;;4949285;28;20954;-86
2022/06/07 08:16:15;;;;;;;3.00;2.57;;;18.60;99.90;;;;;;4944820;28;20561;-85
2022/06/07 08:18:41;;;;;;;2.50;2.40;;;18.70;99.90;;;;;;4943675;28;20189;-83
2022/06/07 08:21:15;;;;;;;2.67;2.47;;;18.80;99.90;;;;;;4946141;28;20512;-83
2022/06/07 08:23:41;;;;;;;2.50;2.30;;;18.90;99.90;;;;;;4954926;28;20481;-83
2022/06/07 08:26:08;;;;;;;3.60;2.27;;;19.10;99.90;;;;;;4963696;28;20766;-83
2022/06/07 08:28:34;;;;;;;3.10;2.90;;;19.40;99.90;;;;;;4948242;28;20593;-84
2022/06/07 08:31:00;;;;;;;3.60;2.73;;;19.60;99.90;;;;;;4953066;28;20457;-84
2022/06/07 08:39:00;;;;;;;5.50;2.70;;;19.20;99.90;;;;;;4946812;28;20887;-85
2022/06/07 08:41:31;;;;;;;2.40;2.30;;;19.70;99.90;;;;;;4951055;28;20918;-84
2022/06/07 08:44:11;;;;;;;2.30;2.20;;;20.30;99.90;;;;;;4963830;28;20518;-84
2022/06/07 08:46:37;;;;;;;2.07;1.97;;;20.40;99.90;;;;;;4946636;28;20537;-84
2022/06/07 08:49:04;;;;;;;1.93;1.83;;;20.70;99.90;;;;;;4947713;28;20446;-85
2022/06/07 08:51:38;;;;;;;2.10;2.00;;;20.50;99.90;;;;;;4936887;28;20457;-83
2022/06/07 08:54:17;;;;;;;2.67;2.47;;;20.20;99.90;;;;;;4947964;28;20457;-83
2022/06/07 08:56:44;;;;;;;2.10;2.00;;;19.90;99.90;;;;;;4945252;28;20587;-83
2022/06/07 08:59:15;;;;;;;2.57;2.33;;;19.70;99.90;;;;;;4956182;28;20508;-83
2022/06/07 09:02:14;;;;;;;2.37;2.17;;;19.50;99.90;;;;;;4938955;28;20453;-83
2022/06/07 09:04:40;;;;;;;2.47;2.20;;;19.80;99.90;;;;;;4937899;28;20485;-83
2022/06/07 09:07:14;;;;;;;2.20;2.10;;;20.20;99.90;;;;;;4937371;28;20433;-83
2022/06/07 09:12:35;;;;;;;2.40;2.20;;;19.90;99.90;;;;;;4938878;28;20444;-83
2022/06/07 09:15:03;;;;;;;2.60;2.40;;;19.60;99.90;;;;;;4948469;28;20896;-84
2022/06/07 09:17:51;;;;;;;4.30;2.57;;;19.90;99.90;;;;;;4941964;28;20533;-84
2022/06/07 09:20:21;;;;;;;3.97;2.10;;;20.50;99.90;;;;;;4938428;28;20497;-84
2022/06/07 09:23:19;;;;;;;2.37;2.20;;;20.60;99.90;;;;;;4943205;28;20466;-84
2022/06/07 09:25:51;;;;;;;2.40;2.20;;;20.90;99.90;;;;;;4930514;28;20446;-84
2022/06/07 09:28:26;;;;;;;2.30;2.20;;;20.90;99.90;;;;;;4942020;28;20715;-83
2022/06/07 09:31:04;;;;;;;2.73;2.53;;;21.00;99.90;;;;;;4938001;28;20448;-83
2022/06/07 09:33:33;;;;;;;1.80;1.70;;;20.80;99.90;;;;;;4939290;28;20564;-84
2022/06/07 09:36:18;;;;;;;2.33;2.20;;;21.00;99.90;;;;;;4941451;28;20581;-83
2022/06/07 09:38:52;;;;;;;1.93;1.83;;;21.10;99.90;;;;;;4939461;28;20437;-84
2022/06/07 09:41:38;;;;;;;2.50;2.20;;;20.90;99.90;;;;;;4939755;28;20469;-84
2022/06/07 09:44:25;;;;;;;2.27;2.10;;;20.80;99.90;;;;;;4938868;28;20501;-84
2022/06/07 09:47:13;;;;;;;1.93;1.80;;;21.40;99.90;;;;;;4940985;28;20926;-84
2022/06/07 09:49:55;;;;;;;2.63;2.17;;;21.20;99.90;;;;;;4940458;28;20859;-84
2022/06/07 09:52:28;;;;;;;1.80;1.70;;;21.00;99.90;;;;;;4942378;28;20437;-82
2022/06/07 09:54:59;;;;;;;2.30;2.10;;;20.70;99.90;;;;;;4948326;28;20439;-83
2022/06/07 09:57:42;;;;;;;2.10;1.90;;;20.70;99.90;;;;;;5019365;28;20520;-84
2022/06/07 10:00:26;;;;;;;4.67;2.10;;;21.20;99.90;;;;;;4941863;28;20517;-83
2022/06/07 10:03:30;;;;;;;2.90;1.97;;;21.00;99.80;;;;;;4955623;28;20450;-83
2022/06/07 10:06:13;;;;;;;2.23;2.10;;;20.50;99.70;;;;;;4937822;28;20546;-83
2022/06/07 10:09:04;;;;;;;2.00;1.90;;;19.90;99.90;;;;;;4942109;28;20537;-84
2022/06/07 10:11:54;;;;;;;2.20;1.90;;;19.80;99.90;;;;;;4940088;28;20433;-83
2022/06/07 10:14:38;;;;;;;1.83;1.73;;;19.60;99.90;;;;;;5025509;28;20449;-84
2022/06/07 10:17:23;;;;;;;2.23;1.67;;;19.70;99.90;;;;;;4936558;28;21713;-83
2022/06/07 10:20:03;;;;;;;3.20;2.03;;;19.90;99.90;;;;;;4933898;28;20557;-84
2022/06/07 10:22:34;;;;;;;1.93;1.83;;;20.20;99.90;;;;;;4942023;28;20438;-83
2022/06/07 10:25:29;;;;;;;1.70;1.60;;;20.40;99.90;;;;;;4944320;28;20847;-83
2022/06/07 10:28:07;;;;;;;2.57;2.03;;;20.50;99.90;;;;;;4960872;28;20462;-83
2022/06/07 10:30:43;;;;;;;1.50;1.40;;;20.70;99.90;;;;;;4941781;28;20453;-83
2022/06/07 10:33:38;;;;;;;1.20;1.20;;;21.00;98.90;;;;;;4943180;28;20445;-83
2022/06/07 10:36:23;;;;;;;3.23;1.83;;;21.00;98.80;;;;;;4940931;28;20449;-83
2022/06/07 10:39:01;;;;;;;1.57;1.33;;;21.30;98.60;;;;;;4947381;28;20438;-83
2022/06/07 10:41:45;;;;;;;1.40;1.30;;;21.60;97.70;;;;;;4940886;28;20446;-83
2022/06/07 10:44:22;;;;;;;1.50;1.40;;;22.20;96.20;;;;;;4937892;28;20962;-84
2022/06/07 10:46:55;;;;;;;2.57;1.43;;;21.70;96.80;;;;;;4936795;28;20438;-83
2022/06/07 10:49:48;;;;;;;3.73;1.73;;;21.00;98.10;;;;;;4942513;28;20469;-83
2022/06/07 10:52:24;;;;;;;1.90;1.80;;;20.80;98.10;;;;;;4941365;28;20437;-83
2022/06/07 10:54:52;;;;;;;1.93;1.80;;;20.40;98.20;;;;;;5023277;28;20441;-83
2022/06/07 10:57:40;;;;;;;1.60;1.50;;;20.30;98.90;;;;;;4933887;28;20442;-83
2022/06/07 11:00:31;;;;;;;1.63;1.53;;;20.30;99.50;;;;;;4940776;28;20490;-84
2022/06/07 11:03:26;;;;;;;1.50;1.40;;;20.40;99.60;;;;;;4930016;28;20438;-83
2022/06/07 11:11:40;;;;;;;1.80;1.70;;;21.00;98.30;;;;;;4938977;28;20580;-83
2022/06/07 11:14:25;;;;;;;1.70;1.60;;;21.10;97.50;;;;;;4944376;28;20867;-82
2022/06/07 11:17:14;;;;;;;2.00;1.60;;;21.20;96.90;;;;;;4955626;28;20464;-83
2022/06/07 11:19:40;;;;;;;1.80;1.70;;;21.70;95.90;;;;;;4940016;28;20478;-83
2022/06/07 11:22:17;;;;;;;2.07;1.30;;;22.60;95.40;;;;;;4942397;28;21865;-83
2022/06/07 11:25:01;;;;;;;1.60;1.50;;;22.80;93.40;;;;;;4949464;28;21286;-83
2022/06/07 11:27:29;;;;;;;1.60;1.50;;;23.20;93.80;;;;;;4940566;28;20450;-83
2022/06/07 11:30:19;;;;;;;1.30;1.23;;;23.50;92.80;;;;;;4945814;28;20464;-82
2022/06/07 11:32:58;;;;;;;1.50;1.40;;;23.00;94.00;;;;;;4949742;28;20966;-83
2022/06/07 11:36:03;;;;;;;1.13;1.13;;;22.60;93.90;;;;;;4959405;28;24277;-83
2022/06/07 11:38:31;;;;;;;2.63;1.60;;;22.10;94.40;;;;;;4941457;28;20429;-82
2022/06/07 11:41:36;;;;;;;1.37;1.27;;;22.20;94.20;;;;;;4944718;28;20944;-83
2022/06/07 11:44:23;;;;;;;2.00;1.20;;;22.50;95.10;;;;;;4956851;28;20529;-83
2022/06/07 11:46:52;;;;;;;1.60;1.50;;;22.30;93.80;;;;;;4943883;28;20442;-83
2022/06/07 11:49:18;;;;;;;2.87;1.60;;;22.40;94.10;;;;;;4942544;28;20866;-83
2022/06/07 11:52:11;;;;;;;1.17;1.10;;;21.90;94.00;;;;;;4937787;28;20459;-83
2022/06/07 11:54:46;;;;;;;1.70;1.27;;;21.40;93.40;;;;;;5022289;28;20577;-83
2022/06/07 11:57:32;;;;;;;1.23;1.23;;;21.00;93.40;;;;;;4942134;28;20445;-83
2022/06/07 12:00:22;;;;;;;1.90;1.20;;;20.90;94.30;;;;;;4960069;28;20564;-82
2022/06/07 12:02:57;;;;;;;1.30;1.20;;;20.50;94.40;;;;;;4944164;28;20453;-83
2022/06/07 12:05:45;;;;;;;2.27;1.40;;;20.40;94.80;;;;;;5022262;28;20453;-84
2022/06/07 12:08:30;;;;;;;1.50;1.30;;;20.50;94.90;;;;;;4942328;28;20434;-84
2022/06/07 12:11:20;;;;;;;2.83;1.60;;;20.50;94.90;;;;;;4946131;28;20837;-83
2022/06/07 12:13:52;;;;;;;1.20;1.20;;;20.50;95.40;;;;;;4943042;28;20458;-84
2022/06/07 12:16:38;;;;;;;1.47;1.17;;;20.70;95.80;;;;;;4950989;28;20433;-85
2022/06/07 12:19:35;;;;;;;1.57;1.47;;;21.10;95.20;;;;;;4942022;28;20485;-85
2022/06/07 12:22:07;;;;;;;1.50;1.40;;;21.20;95.20;;;;;;4945643;28;20805;-85
2022/06/07 12:24:43;;;;;;;1.27;1.20;;;21.80;95.60;;;;;;4932432;28;21108;-85
2022/06/07 12:27:22;;;;;;;1.60;1.20;;;22.70;94.30;;;;;;4934755;28;20513;-85
2022/06/07 12:29:49;;;;;;;1.40;1.30;;;23.40;93.40;;;;;;4936384;28;20452;-84
2022/06/07 12:32:27;;;;;;;1.57;1.37;;;23.50;93.70;;;;;;4944388;28;20453;-85
2022/06/07 12:35:15;;;;;;;1.27;1.17;;;23.30;93.60;;;;;;4935956;28;20445;-85
2022/06/07 12:37:45;;;;;;;1.60;1.50;;;23.60;93.50;;;;;;4933916;28;20453;-84
2022/06/07 12:40:24;;;;;;;1.53;1.43;;;23.70;93.20;;;;;;4937275;28;20572;-84
2022/06/07 12:42:50;;;;;;;1.60;1.50;;;23.40;91.50;;;;;;4946419;28;20448;-84
2022/06/07 12:45:33;;;;;;;1.70;1.50;;;23.80;92.30;;;;;;4940433;28;20458;-84
2022/06/07 12:48:07;;;;;;;1.53;1.30;;;23.10;93.10;;;;;;4954000;28;20317;-84
2022/06/07 12:50:44;;;;;;;1.20;1.10;;;23.20;92.50;;;;;;4940424;28;20469;-85
2022/06/07 12:53:25;;;;;;;2.30;1.50;;;23.70;94.40;;;;;;4939866;28;20492;-85
2022/06/07 12:56:02;;;;;;;1.30;1.20;;;24.10;92.90;;;;;;4939471;28;20536;-84
2022/06/07 12:58:33;;;;;;;1.10;1.10;;;23.90;91.80;;;;;;4936742;28;20453;-85
2022/06/07 13:00:59;;;;;;;1.40;1.30;;;23.20;92.90;;;;;;4937817;28;20667;-84
2022/06/07 13:03:34;;;;;;;1.30;1.30;;;23.30;93.00;;;;;;4942137;28;21138;-84
2022/06/07 13:06:04;;;;;;;1.07;1.07;;;23.60;92.30;;;;;;4938496;28;20623;-84
2022/06/07 13:08:39;;;;;;;1.20;1.07;;;24.10;91.00;;;;;;4939982;28;20920;-85
2022/06/07 13:11:10;;;;;;;1.37;1.27;;;24.40;90.10;;;;;;4937296;28;20441;-84
2022/06/07 13:13:39;;;;;;;1.20;1.20;;;24.90;89.30;;;;;;4949708;28;20450;-84
2022/06/07 13:16:08;;;;;;;1.30;1.20;;;24.10;89.60;;;;;;4939316;28;20932;-84
2022/06/07 13:18:41;;;;;;;1.10;1.10;;;23.30;91.40;;;;;;4941979;28;20450;-84
2022/06/07 13:21:41;;;;;;;1.27;1.10;;;23.00;91.40;;;;;;4940000;28;20485;-85
2022/06/07 13:24:28;;;;;;;1.13;1.13;;;23.20;91.50;;;;;;4916288;28;20447;-84
2022/06/07 13:27:02;;;;;;;1.40;1.03;;;23.70;91.60;;;;;;4936424;28;20458;-85
2022/06/07 13:29:34;;;;;;;1.20;1.10;;;24.00;92.60;;;;;;4936588;28;20470;-84
2022/06/07 13:32:04;;;;;;;1.43;1.33;;;24.50;90.20;;;;;;4939093;28;20481;-84
2022/06/07 13:34:36;;;;;;;1.20;1.10;;;24.60;89.20;;;;;;4939371;28;20796;-84